sensor_id;sensor_type;location;lat;lon;timestamp;temperature;humidity
47174;DHT22;36730;49.036;9.094;2022-08-03T00:01:44;27.80;57.00
47174;DHT22;36730;49.036;9.094;2022-08-03T00:04:09;27.70;57.10
47174;DHT22;36730;49.036;9.094;2022-08-03T00:06:35;27.70;57.10
47174;DHT22;36730;49.036;9.094;2022-08-03T00:09:01;27.70;57.20
47174;DHT22;36730;49.036;9.094;2022-08-03T00:11:26;27.70;57.10
47174;DHT22;36730;49.036;9.094;2022-08-03T00:13:52;27.70;57.20
47174;DHT22;36730;49.036;9.094;2022-08-03T00:16:18;27.70;57.10
47174;DHT22;36730;49.036;9.094;2022-08-03T00:18:43;27.70;57.20
47174;DHT22;36730;49.036;9.094;2022-08-03T00:21:09;27.70;57.20
47174;DHT22;36730;49.036;9.094;2022-08-03T00:23:34;27.70;57.30
47174;DHT22;36730;49.036;9.094;2022-08-03T00:26:00;27.70;57.30
47174;DHT22;36730;49.036;9.094;2022-08-03T00:28:26;27.60;57.30
47174;DHT22;36730;49.036;9.094;2022-08-03T00:30:51;27.60;57.30
47174;DHT22;36730;49.036;9.094;2022-08-03T00:33:17;27.60;57.50
47174;DHT22;36730;49.036;9.094;2022-08-03T00:35:42;27.60;57.50
47174;DHT22;36730;49.036;9.094;2022-08-03T00:38:08;27.50;57.60
47174;DHT22;36730;49.036;9.094;2022-08-03T00:40:33;27.50;57.60
47174;DHT22;36730;49.036;9.094;2022-08-03T00:43:00;27.50;57.60
47174;DHT22;36730;49.036;9.094;2022-08-03T00:45:27;27.50;57.70
47174;DHT22;36730;49.036;9.094;2022-08-03T00:47:53;27.50;57.70
47174;DHT22;36730;49.036;9.094;2022-08-03T00:50:19;27.50;57.70
47174;DHT22;36730;49.036;9.094;2022-08-03T00:52:47;27.50;57.80
47174;DHT22;36730;49.036;9.094;2022-08-03T00:55:12;27.50;57.80
47174;DHT22;36730;49.036;9.094;2022-08-03T00:57:38;27.50;57.70
47174;DHT22;36730;49.036;9.094;2022-08-03T01:00:05;27.50;57.80
47174;DHT22;36730;49.036;9.094;2022-08-03T01:02:31;27.50;57.90
47174;DHT22;36730;49.036;9.094;2022-08-03T01:04:56;27.40;57.80
47174;DHT22;36730;49.036;9.094;2022-08-03T01:10:00;27.40;57.90
47174;DHT22;36730;49.036;9.094;2022-08-03T01:15:04;27.40;58.10
47174;DHT22;36730;49.036;9.094;2022-08-03T01:17:33;27.40;58.00
47174;DHT22;36730;49.036;9.094;2022-08-03T01:20:02;27.40;58.00
47174;DHT22;36730;49.036;9.094;2022-08-03T01:28:19;27.40;58.20
47174;DHT22;36730;49.036;9.094;2022-08-03T01:30:20;27.40;58.20
47174;DHT22;36730;49.036;9.094;2022-08-03T01:32:50;27.30;58.30
47174;DHT22;36730;49.036;9.094;2022-08-03T01:35:35;27.30;58.30
47174;DHT22;36730;49.036;9.094;2022-08-03T01:38:02;27.40;58.20
47174;DHT22;36730;49.036;9.094;2022-08-03T01:40:28;27.30;58.10
47174;DHT22;36730;49.036;9.094;2022-08-03T01:42:56;27.40;58.40
47174;DHT22;36730;49.036;9.094;2022-08-03T01:45:23;27.40;58.30
47174;DHT22;36730;49.036;9.094;2022-08-03T01:47:49;27.40;58.40
47174;DHT22;36730;49.036;9.094;2022-08-03T01:50:18;27.30;58.20
47174;DHT22;36730;49.036;9.094;2022-08-03T01:52:45;27.30;58.20
47174;DHT22;36730;49.036;9.094;2022-08-03T01:55:12;27.30;58.40
47174;DHT22;36730;49.036;9.094;2022-08-03T01:57:38;27.30;58.50
47174;DHT22;36730;49.036;9.094;2022-08-03T02:00:04;27.30;58.60
47174;DHT22;36730;49.036;9.094;2022-08-03T02:02:33;27.20;58.60
47174;DHT22;36730;49.036;9.094;2022-08-03T02:05:00;27.20;58.70
47174;DHT22;36730;49.036;9.094;2022-08-03T02:07:27;27.20;58.80
47174;DHT22;36730;49.036;9.094;2022-08-03T02:09:53;27.10;58.80
47174;DHT22;36730;49.036;9.094;2022-08-03T02:12:20;27.10;58.80
47174;DHT22;36730;49.036;9.094;2022-08-03T02:14:46;27.10;58.80
47174;DHT22;36730;49.036;9.094;2022-08-03T02:17:12;27.10;58.90
47174;DHT22;36730;49.036;9.094;2022-08-03T02:19:39;27.10;59.00
47174;DHT22;36730;49.036;9.094;2022-08-03T02:22:07;27.10;59.10
47174;DHT22;36730;49.036;9.094;2022-08-03T02:24:34;27.10;59.10
47174;DHT22;36730;49.036;9.094;2022-08-03T02:27:00;27.10;59.00
47174;DHT22;36730;49.036;9.094;2022-08-03T02:29:26;27.10;59.00
47174;DHT22;36730;49.036;9.094;2022-08-03T02:31:53;27.10;59.00
47174;DHT22;36730;49.036;9.094;2022-08-03T02:34:21;27.10;59.10
47174;DHT22;36730;49.036;9.094;2022-08-03T02:36:48;27.10;59.10
47174;DHT22;36730;49.036;9.094;2022-08-03T02:39:15;27.10;59.10
47174;DHT22;36730;49.036;9.094;2022-08-03T02:41:46;27.20;59.00
47174;DHT22;36730;49.036;9.094;2022-08-03T02:44:13;27.10;59.00
47174;DHT22;36730;49.036;9.094;2022-08-03T02:46:40;27.10;59.00
47174;DHT22;36730;49.036;9.094;2022-08-03T02:49:07;27.10;59.00
47174;DHT22;36730;49.036;9.094;2022-08-03T02:51:34;27.00;59.00
47174;DHT22;36730;49.036;9.094;2022-08-03T02:54:01;27.00;59.10
47174;DHT22;36730;49.036;9.094;2022-08-03T02:56:27;27.00;59.20
47174;DHT22;36730;49.036;9.094;2022-08-03T02:58:52;27.00;59.30
47174;DHT22;36730;49.036;9.094;2022-08-03T03:01:19;26.90;59.20
47174;DHT22;36730;49.036;9.094;2022-08-03T03:03:46;26.90;59.30
47174;DHT22;36730;49.036;9.094;2022-08-03T03:06:12;26.90;59.30
47174;DHT22;36730;49.036;9.094;2022-08-03T03:08:37;26.90;59.40
47174;DHT22;36730;49.036;9.094;2022-08-03T03:11:03;26.90;58.80
47174;DHT22;36730;49.036;9.094;2022-08-03T03:13:29;26.80;59.00
47174;DHT22;36730;49.036;9.094;2022-08-03T03:15:55;26.60;59.40
47174;DHT22;36730;49.036;9.094;2022-08-03T03:18:21;26.40;59.60
47174;DHT22;36730;49.036;9.094;2022-08-03T03:20:48;26.30;59.80
47174;DHT22;36730;49.036;9.094;2022-08-03T03:23:14;26.20;60.30
47174;DHT22;36730;49.036;9.094;2022-08-03T03:25:40;26.10;60.90
47174;DHT22;36730;49.036;9.094;2022-08-03T03:28:05;25.90;60.70
47174;DHT22;36730;49.036;9.094;2022-08-03T03:30:31;25.80;61.10
47174;DHT22;36730;49.036;9.094;2022-08-03T03:32:57;25.70;61.30
47174;DHT22;36730;49.036;9.094;2022-08-03T03:35:23;25.60;61.80
47174;DHT22;36730;49.036;9.094;2022-08-03T03:37:48;25.60;62.10
47174;DHT22;36730;49.036;9.094;2022-08-03T03:40:14;25.50;62.50
47174;DHT22;36730;49.036;9.094;2022-08-03T03:42:40;25.50;62.80
47174;DHT22;36730;49.036;9.094;2022-08-03T03:45:06;25.40;63.40
47174;DHT22;36730;49.036;9.094;2022-08-03T03:47:35;25.40;63.50
47174;DHT22;36730;49.036;9.094;2022-08-03T03:50:02;25.30;63.60
47174;DHT22;36730;49.036;9.094;2022-08-03T03:52:27;25.20;64.50
47174;DHT22;36730;49.036;9.094;2022-08-03T03:54:53;25.10;64.50
47174;DHT22;36730;49.036;9.094;2022-08-03T03:57:19;25.10;64.60
47174;DHT22;36730;49.036;9.094;2022-08-03T03:59:44;25.00;64.90
47174;DHT22;36730;49.036;9.094;2022-08-03T04:02:10;25.00;64.80
47174;DHT22;36730;49.036;9.094;2022-08-03T04:04:36;25.00;64.80
47174;DHT22;36730;49.036;9.094;2022-08-03T04:07:22;24.90;65.50
47174;DHT22;36730;49.036;9.094;2022-08-03T04:10:12;24.90;65.30
47174;DHT22;36730;49.036;9.094;2022-08-03T04:12:56;24.80;65.30
47174;DHT22;36730;49.036;9.094;2022-08-03T04:15:23;24.80;65.60
47174;DHT22;36730;49.036;9.094;2022-08-03T04:17:49;24.70;65.70
47174;DHT22;36730;49.036;9.094;2022-08-03T04:20:17;24.70;65.80
47174;DHT22;36730;49.036;9.094;2022-08-03T04:22:44;24.70;65.30
47174;DHT22;36730;49.036;9.094;2022-08-03T04:25:13;24.70;65.00
47174;DHT22;36730;49.036;9.094;2022-08-03T04:27:42;24.70;65.30
47174;DHT22;36730;49.036;9.094;2022-08-03T04:30:08;24.70;65.70
47174;DHT22;36730;49.036;9.094;2022-08-03T04:32:34;24.60;66.70
47174;DHT22;36730;49.036;9.094;2022-08-03T04:35:01;24.60;66.70
47174;DHT22;36730;49.036;9.094;2022-08-03T04:40:02;24.50;67.40
47174;DHT22;36730;49.036;9.094;2022-08-03T04:42:30;24.50;68.00
47174;DHT22;36730;49.036;9.094;2022-08-03T04:44:56;24.40;68.60
47174;DHT22;36730;49.036;9.094;2022-08-03T04:47:22;24.40;67.80
47174;DHT22;36730;49.036;9.094;2022-08-03T04:49:47;24.40;68.20
47174;DHT22;36730;49.036;9.094;2022-08-03T04:52:13;24.40;68.60
47174;DHT22;36730;49.036;9.094;2022-08-03T04:54:39;24.40;68.00
47174;DHT22;36730;49.036;9.094;2022-08-03T04:57:05;24.40;68.50
47174;DHT22;36730;49.036;9.094;2022-08-03T04:59:31;24.40;68.30
47174;DHT22;36730;49.036;9.094;2022-08-03T05:01:56;24.40;67.90
47174;DHT22;36730;49.036;9.094;2022-08-03T05:04:22;24.40;68.90
47174;DHT22;36730;49.036;9.094;2022-08-03T05:06:48;24.40;68.60
47174;DHT22;36730;49.036;9.094;2022-08-03T05:09:13;24.40;69.20
47174;DHT22;36730;49.036;9.094;2022-08-03T05:11:39;24.40;69.20
47174;DHT22;36730;49.036;9.094;2022-08-03T05:14:04;24.40;69.00
47174;DHT22;36730;49.036;9.094;2022-08-03T05:16:30;24.40;69.10
47174;DHT22;36730;49.036;9.094;2022-08-03T05:18:55;24.40;69.30
47174;DHT22;36730;49.036;9.094;2022-08-03T05:21:21;24.40;70.00
47174;DHT22;36730;49.036;9.094;2022-08-03T05:23:46;24.50;70.80
47174;DHT22;36730;49.036;9.094;2022-08-03T05:26:12;24.50;70.70
47174;DHT22;36730;49.036;9.094;2022-08-03T05:28:37;24.40;70.40
47174;DHT22;36730;49.036;9.094;2022-08-03T05:31:03;24.50;70.90
47174;DHT22;36730;49.036;9.094;2022-08-03T05:33:28;24.50;71.80
47174;DHT22;36730;49.036;9.094;2022-08-03T05:35:54;24.60;71.90
47174;DHT22;36730;49.036;9.094;2022-08-03T05:38:19;24.60;73.80
47174;DHT22;36730;49.036;9.094;2022-08-03T05:40:45;24.60;72.20
47174;DHT22;36730;49.036;9.094;2022-08-03T05:43:10;24.70;72.00
47174;DHT22;36730;49.036;9.094;2022-08-03T05:45:36;24.70;73.10
47174;DHT22;36730;49.036;9.094;2022-08-03T05:48:03;24.80;73.70
47174;DHT22;36730;49.036;9.094;2022-08-03T05:50:29;24.80;73.60
47174;DHT22;36730;49.036;9.094;2022-08-03T05:52:54;24.80;73.70
47174;DHT22;36730;49.036;9.094;2022-08-03T05:55:22;24.90;74.30
47174;DHT22;36730;49.036;9.094;2022-08-03T05:57:47;24.90;74.70
47174;DHT22;36730;49.036;9.094;2022-08-03T06:00:13;24.90;75.10
47174;DHT22;36730;49.036;9.094;2022-08-03T06:02:38;25.00;75.20
47174;DHT22;36730;49.036;9.094;2022-08-03T06:05:04;24.90;76.00
47174;DHT22;36730;49.036;9.094;2022-08-03T06:07:30;24.90;76.40
47174;DHT22;36730;49.036;9.094;2022-08-03T06:09:56;25.00;76.00
47174;DHT22;36730;49.036;9.094;2022-08-03T06:12:21;24.90;77.00
47174;DHT22;36730;49.036;9.094;2022-08-03T06:14:46;25.00;76.90
47174;DHT22;36730;49.036;9.094;2022-08-03T06:17:12;25.00;77.70
47174;DHT22;36730;49.036;9.094;2022-08-03T06:19:37;25.00;76.40
47174;DHT22;36730;49.036;9.094;2022-08-03T06:22:03;25.10;77.80
47174;DHT22;36730;49.036;9.094;2022-08-03T06:24:29;25.00;77.60
47174;DHT22;36730;49.036;9.094;2022-08-03T06:26:54;25.00;78.60
47174;DHT22;36730;49.036;9.094;2022-08-03T06:29:20;25.00;78.60
47174;DHT22;36730;49.036;9.094;2022-08-03T06:31:45;24.90;78.10
47174;DHT22;36730;49.036;9.094;2022-08-03T06:34:11;25.00;78.40
47174;DHT22;36730;49.036;9.094;2022-08-03T06:36:36;25.10;77.30
47174;DHT22;36730;49.036;9.094;2022-08-03T06:39:02;25.20;76.90
47174;DHT22;36730;49.036;9.094;2022-08-03T06:41:27;25.30;77.30
47174;DHT22;36730;49.036;9.094;2022-08-03T06:43:53;25.40;76.90
47174;DHT22;36730;49.036;9.094;2022-08-03T06:46:19;25.40;76.70
47174;DHT22;36730;49.036;9.094;2022-08-03T06:48:44;25.50;75.30
47174;DHT22;36730;49.036;9.094;2022-08-03T06:51:10;25.60;75.80
47174;DHT22;36730;49.036;9.094;2022-08-03T06:53:36;25.60;76.10
47174;DHT22;36730;49.036;9.094;2022-08-03T06:56:03;25.60;75.80
47174;DHT22;36730;49.036;9.094;2022-08-03T06:58:29;25.70;75.40
47174;DHT22;36730;49.036;9.094;2022-08-03T07:00:54;25.70;75.50
47174;DHT22;36730;49.036;9.094;2022-08-03T07:03:20;25.80;74.90
47174;DHT22;36730;49.036;9.094;2022-08-03T07:05:45;25.90;75.10
47174;DHT22;36730;49.036;9.094;2022-08-03T07:08:11;26.00;74.50
47174;DHT22;36730;49.036;9.094;2022-08-03T07:10:37;26.00;73.70
47174;DHT22;36730;49.036;9.094;2022-08-03T07:13:03;26.10;73.90
47174;DHT22;36730;49.036;9.094;2022-08-03T07:15:28;26.20;73.60
47174;DHT22;36730;49.036;9.094;2022-08-03T07:17:55;26.20;73.20
47174;DHT22;36730;49.036;9.094;2022-08-03T07:20:20;26.30;74.00
47174;DHT22;36730;49.036;9.094;2022-08-03T07:22:46;26.30;72.70
47174;DHT22;36730;49.036;9.094;2022-08-03T07:25:11;26.40;72.80
47174;DHT22;36730;49.036;9.094;2022-08-03T07:27:37;26.50;71.80
47174;DHT22;36730;49.036;9.094;2022-08-03T07:30:04;26.60;72.00
47174;DHT22;36730;49.036;9.094;2022-08-03T07:32:30;26.60;71.00
47174;DHT22;36730;49.036;9.094;2022-08-03T07:34:55;26.70;71.10
47174;DHT22;36730;49.036;9.094;2022-08-03T07:37:21;26.70;70.50
47174;DHT22;36730;49.036;9.094;2022-08-03T07:39:47;26.80;70.40
47174;DHT22;36730;49.036;9.094;2022-08-03T07:42:12;26.80;70.10
47174;DHT22;36730;49.036;9.094;2022-08-03T07:44:38;26.90;70.00
47174;DHT22;36730;49.036;9.094;2022-08-03T07:47:04;26.90;70.00
47174;DHT22;36730;49.036;9.094;2022-08-03T07:49:29;27.00;69.00
47174;DHT22;36730;49.036;9.094;2022-08-03T07:51:55;27.00;68.30
47174;DHT22;36730;49.036;9.094;2022-08-03T07:54:39;27.10;68.50
47174;DHT22;36730;49.036;9.094;2022-08-03T07:57:05;27.10;69.20
47174;DHT22;36730;49.036;9.094;2022-08-03T07:59:30;27.30;69.00
47174;DHT22;36730;49.036;9.094;2022-08-03T08:01:56;27.40;68.90
47174;DHT22;36730;49.036;9.094;2022-08-03T08:04:21;27.40;68.40
47174;DHT22;36730;49.036;9.094;2022-08-03T08:06:47;27.50;68.30
47174;DHT22;36730;49.036;9.094;2022-08-03T08:09:12;27.50;66.60
47174;DHT22;36730;49.036;9.094;2022-08-03T08:11:38;27.60;67.10
47174;DHT22;36730;49.036;9.094;2022-08-03T08:14:03;27.70;67.00
47174;DHT22;36730;49.036;9.094;2022-08-03T08:16:29;27.80;66.30
47174;DHT22;36730;49.036;9.094;2022-08-03T08:18:55;27.80;66.40
47174;DHT22;36730;49.036;9.094;2022-08-03T08:21:20;27.90;67.10
47174;DHT22;36730;49.036;9.094;2022-08-03T08:23:46;28.00;65.30
47174;DHT22;36730;49.036;9.094;2022-08-03T08:26:12;28.00;66.10
47174;DHT22;36730;49.036;9.094;2022-08-03T08:28:38;28.10;65.50
47174;DHT22;36730;49.036;9.094;2022-08-03T08:31:03;28.20;64.60
47174;DHT22;36730;49.036;9.094;2022-08-03T08:33:29;28.30;64.20
47174;DHT22;36730;49.036;9.094;2022-08-03T08:35:55;28.30;65.00
47174;DHT22;36730;49.036;9.094;2022-08-03T08:38:21;28.40;65.70
47174;DHT22;36730;49.036;9.094;2022-08-03T08:40:47;28.50;65.30
47174;DHT22;36730;49.036;9.094;2022-08-03T08:43:13;28.60;64.80
47174;DHT22;36730;49.036;9.094;2022-08-03T08:45:39;28.70;64.20
47174;DHT22;36730;49.036;9.094;2022-08-03T08:48:05;28.80;63.70
47174;DHT22;36730;49.036;9.094;2022-08-03T08:50:31;28.80;62.00
47174;DHT22;36730;49.036;9.094;2022-08-03T08:52:59;28.90;61.50
47174;DHT22;36730;49.036;9.094;2022-08-03T08:55:26;28.90;61.00
47174;DHT22;36730;49.036;9.094;2022-08-03T08:57:56;29.00;61.80
47174;DHT22;36730;49.036;9.094;2022-08-03T09:00:23;29.10;60.00
47174;DHT22;36730;49.036;9.094;2022-08-03T09:02:48;29.10;59.80
47174;DHT22;36730;49.036;9.094;2022-08-03T09:05:18;29.10;59.60
47174;DHT22;36730;49.036;9.094;2022-08-03T09:07:44;29.20;62.00
47174;DHT22;36730;49.036;9.094;2022-08-03T09:10:12;29.30;61.30
47174;DHT22;36730;49.036;9.094;2022-08-03T09:12:40;29.40;60.90
47174;DHT22;36730;49.036;9.094;2022-08-03T09:15:19;29.40;61.10
47174;DHT22;36730;49.036;9.094;2022-08-03T09:17:45;29.40;60.80
47174;DHT22;36730;49.036;9.094;2022-08-03T09:20:11;29.50;60.50
47174;DHT22;36730;49.036;9.094;2022-08-03T09:22:50;29.60;59.90
47174;DHT22;36730;49.036;9.094;2022-08-03T09:25:16;29.60;59.40
47174;DHT22;36730;49.036;9.094;2022-08-03T09:27:42;29.60;58.60
47174;DHT22;36730;49.036;9.094;2022-08-03T09:30:14;29.70;59.30
47174;DHT22;36730;49.036;9.094;2022-08-03T09:32:41;29.70;57.90
47174;DHT22;36730;49.036;9.094;2022-08-03T09:35:07;29.70;58.20
47174;DHT22;36730;49.036;9.094;2022-08-03T09:37:33;29.80;58.40
47174;DHT22;36730;49.036;9.094;2022-08-03T09:39:58;29.80;57.70
47174;DHT22;36730;49.036;9.094;2022-08-03T09:42:24;29.90;57.70
47174;DHT22;36730;49.036;9.094;2022-08-03T09:44:51;29.90;57.40
47174;DHT22;36730;49.036;9.094;2022-08-03T09:47:38;30.00;57.00
47174;DHT22;36730;49.036;9.094;2022-08-03T09:50:04;30.00;57.30
47174;DHT22;36730;49.036;9.094;2022-08-03T09:52:34;30.00;57.00
47174;DHT22;36730;49.036;9.094;2022-08-03T09:55:00;30.10;56.40
47174;DHT22;36730;49.036;9.094;2022-08-03T09:57:27;30.20;57.00
47174;DHT22;36730;49.036;9.094;2022-08-03T09:59:53;30.20;57.00
47174;DHT22;36730;49.036;9.094;2022-08-03T10:02:23;30.20;56.10
47174;DHT22;36730;49.036;9.094;2022-08-03T10:04:48;30.20;56.50
47174;DHT22;36730;49.036;9.094;2022-08-03T10:07:17;30.30;55.70
47174;DHT22;36730;49.036;9.094;2022-08-03T10:09:56;30.30;55.80
47174;DHT22;36730;49.036;9.094;2022-08-03T10:12:21;30.40;55.50
47174;DHT22;36730;49.036;9.094;2022-08-03T10:14:47;30.40;55.20
47174;DHT22;36730;49.036;9.094;2022-08-03T10:17:12;30.40;55.30
47174;DHT22;36730;49.036;9.094;2022-08-03T10:19:38;30.50;55.30
47174;DHT22;36730;49.036;9.094;2022-08-03T10:22:12;30.60;54.80
47174;DHT22;36730;49.036;9.094;2022-08-03T10:24:38;30.60;54.00
47174;DHT22;36730;49.036;9.094;2022-08-03T10:27:07;30.60;54.20
47174;DHT22;36730;49.036;9.094;2022-08-03T10:29:37;30.60;53.30
47174;DHT22;36730;49.036;9.094;2022-08-03T10:32:03;30.70;53.40
47174;DHT22;36730;49.036;9.094;2022-08-03T10:34:33;30.70;53.70
47174;DHT22;36730;49.036;9.094;2022-08-03T10:36:59;30.80;54.00
47174;DHT22;36730;49.036;9.094;2022-08-03T10:39:27;30.80;53.70
47174;DHT22;36730;49.036;9.094;2022-08-03T10:41:53;30.80;53.10
47174;DHT22;36730;49.036;9.094;2022-08-03T10:44:22;30.80;53.60
47174;DHT22;36730;49.036;9.094;2022-08-03T10:46:48;30.90;53.50
47174;DHT22;36730;49.036;9.094;2022-08-03T10:49:16;30.90;53.70
47174;DHT22;36730;49.036;9.094;2022-08-03T10:51:43;30.90;53.50
47174;DHT22;36730;49.036;9.094;2022-08-03T10:56:53;31.00;53.50
47174;DHT22;36730;49.036;9.094;2022-08-03T11:02:15;31.10;53.30
47174;DHT22;36730;49.036;9.094;2022-08-03T11:04:41;31.10;52.80
47174;DHT22;36730;49.036;9.094;2022-08-03T11:09:46;31.20;53.00
47174;DHT22;36730;49.036;9.094;2022-08-03T11:12:31;31.20;52.50
47174;DHT22;36730;49.036;9.094;2022-08-03T11:15:08;31.30;51.40
47174;DHT22;36730;49.036;9.094;2022-08-03T11:17:34;31.30;51.80
47174;DHT22;36730;49.036;9.094;2022-08-03T11:20:00;31.30;52.10
47174;DHT22;36730;49.036;9.094;2022-08-03T11:22:25;31.30;51.90
47174;DHT22;36730;49.036;9.094;2022-08-03T11:25:11;31.40;52.00
47174;DHT22;36730;49.036;9.094;2022-08-03T11:27:38;31.40;51.40
47174;DHT22;36730;49.036;9.094;2022-08-03T11:30:05;31.40;51.50
47174;DHT22;36730;49.036;9.094;2022-08-03T11:43:08;31.60;51.30
47174;DHT22;36730;49.036;9.094;2022-08-03T11:45:34;31.60;51.40
47174;DHT22;36730;49.036;9.094;2022-08-03T11:48:12;31.70;50.90
47174;DHT22;36730;49.036;9.094;2022-08-03T11:50:38;31.60;50.70
47174;DHT22;36730;49.036;9.094;2022-08-03T11:53:04;31.70;50.60
47174;DHT22;36730;49.036;9.094;2022-08-03T11:55:31;31.70;50.30
47174;DHT22;36730;49.036;9.094;2022-08-03T11:57:59;31.70;50.70
47174;DHT22;36730;49.036;9.094;2022-08-03T12:00:29;31.80;49.90
47174;DHT22;36730;49.036;9.094;2022-08-03T12:02:55;31.80;50.00
47174;DHT22;36730;49.036;9.094;2022-08-03T12:05:31;31.80;50.70
47174;DHT22;36730;49.036;9.094;2022-08-03T12:07:56;31.80;50.60
47174;DHT22;36730;49.036;9.094;2022-08-03T12:10:23;31.90;50.70
47174;DHT22;36730;49.036;9.094;2022-08-03T12:12:56;32.00;50.30
47174;DHT22;36730;49.036;9.094;2022-08-03T12:15:26;32.00;50.00
47174;DHT22;36730;49.036;9.094;2022-08-03T12:17:52;32.00;50.40
47174;DHT22;36730;49.036;9.094;2022-08-03T12:20:21;32.10;50.20
47174;DHT22;36730;49.036;9.094;2022-08-03T12:22:47;32.10;49.70
47174;DHT22;36730;49.036;9.094;2022-08-03T12:25:25;32.10;49.60
47174;DHT22;36730;49.036;9.094;2022-08-03T12:27:51;32.20;49.60
47174;DHT22;36730;49.036;9.094;2022-08-03T12:30:17;32.20;49.60
47174;DHT22;36730;49.036;9.094;2022-08-03T12:32:44;32.30;49.60
47174;DHT22;36730;49.036;9.094;2022-08-03T12:35:09;32.30;50.00
47174;DHT22;36730;49.036;9.094;2022-08-03T12:37:35;32.30;49.80
47174;DHT22;36730;49.036;9.094;2022-08-03T12:40:01;32.40;49.50
47174;DHT22;36730;49.036;9.094;2022-08-03T12:42:32;32.30;49.50
47174;DHT22;36730;49.036;9.094;2022-08-03T12:44:58;32.40;49.10
47174;DHT22;36730;49.036;9.094;2022-08-03T12:47:23;32.30;47.60
47174;DHT22;36730;49.036;9.094;2022-08-03T12:49:49;32.40;48.10
47174;DHT22;36730;49.036;9.094;2022-08-03T12:52:16;32.30;48.00
47174;DHT22;36730;49.036;9.094;2022-08-03T12:54:42;32.40;48.10
47174;DHT22;36730;49.036;9.094;2022-08-03T12:57:18;32.30;48.20
47174;DHT22;36730;49.036;9.094;2022-08-03T12:59:44;32.40;48.10
47174;DHT22;36730;49.036;9.094;2022-08-03T13:02:16;32.40;48.00
47174;DHT22;36730;49.036;9.094;2022-08-03T13:04:42;32.40;47.60
47174;DHT22;36730;49.036;9.094;2022-08-03T13:07:10;32.40;47.50
47174;DHT22;36730;49.036;9.094;2022-08-03T13:09:42;32.50;48.20
47174;DHT22;36730;49.036;9.094;2022-08-03T13:12:09;32.50;47.70
47174;DHT22;36730;49.036;9.094;2022-08-03T13:14:35;32.50;47.90
47174;DHT22;36730;49.036;9.094;2022-08-03T13:17:00;32.50;46.90
47174;DHT22;36730;49.036;9.094;2022-08-03T13:19:26;32.60;46.90
47174;DHT22;36730;49.036;9.094;2022-08-03T13:21:51;32.60;47.00
47174;DHT22;36730;49.036;9.094;2022-08-03T13:24:17;32.60;47.20
47174;DHT22;36730;49.036;9.094;2022-08-03T13:26:43;32.70;46.50
47174;DHT22;36730;49.036;9.094;2022-08-03T13:29:09;32.70;47.00
47174;DHT22;36730;49.036;9.094;2022-08-03T13:31:34;32.70;46.20
47174;DHT22;36730;49.036;9.094;2022-08-03T13:34:00;32.70;46.30
47174;DHT22;36730;49.036;9.094;2022-08-03T13:36:25;32.80;46.50
47174;DHT22;36730;49.036;9.094;2022-08-03T13:38:51;32.70;46.80
47174;DHT22;36730;49.036;9.094;2022-08-03T13:41:17;32.90;47.10
47174;DHT22;36730;49.036;9.094;2022-08-03T13:43:42;32.90;47.10
47174;DHT22;36730;49.036;9.094;2022-08-03T13:46:08;32.90;46.70
47174;DHT22;36730;49.036;9.094;2022-08-03T13:48:33;32.90;47.00
47174;DHT22;36730;49.036;9.094;2022-08-03T13:50:59;32.90;46.50
47174;DHT22;36730;49.036;9.094;2022-08-03T13:53:24;33.00;46.90
47174;DHT22;36730;49.036;9.094;2022-08-03T13:55:50;33.00;46.80
47174;DHT22;36730;49.036;9.094;2022-08-03T13:58:15;33.10;46.60
47174;DHT22;36730;49.036;9.094;2022-08-03T14:00:41;33.10;46.50
47174;DHT22;36730;49.036;9.094;2022-08-03T14:03:06;33.10;46.70
47174;DHT22;36730;49.036;9.094;2022-08-03T14:05:32;33.10;46.70
47174;DHT22;36730;49.036;9.094;2022-08-03T14:07:58;33.10;46.50
47174;DHT22;36730;49.036;9.094;2022-08-03T14:10:25;33.10;45.80
47174;DHT22;36730;49.036;9.094;2022-08-03T14:12:50;33.20;46.20
47174;DHT22;36730;49.036;9.094;2022-08-03T14:15:16;33.20;46.40
47174;DHT22;36730;49.036;9.094;2022-08-03T14:17:41;33.20;46.00
47174;DHT22;36730;49.036;9.094;2022-08-03T14:20:07;33.20;45.90
47174;DHT22;36730;49.036;9.094;2022-08-03T14:22:33;33.20;45.70
47174;DHT22;36730;49.036;9.094;2022-08-03T14:24:58;33.30;45.60
47174;DHT22;36730;49.036;9.094;2022-08-03T14:27:24;33.30;45.10
47174;DHT22;36730;49.036;9.094;2022-08-03T14:29:49;33.30;44.60
47174;DHT22;36730;49.036;9.094;2022-08-03T14:32:15;33.30;45.20
47174;DHT22;36730;49.036;9.094;2022-08-03T14:34:40;33.20;45.20
47174;DHT22;36730;49.036;9.094;2022-08-03T14:37:06;33.20;45.00
47174;DHT22;36730;49.036;9.094;2022-08-03T14:39:31;33.20;44.80
47174;DHT22;36730;49.036;9.094;2022-08-03T14:41:57;33.20;45.40
47174;DHT22;36730;49.036;9.094;2022-08-03T14:44:22;33.20;45.10
47174;DHT22;36730;49.036;9.094;2022-08-03T14:46:47;33.20;45.00
47174;DHT22;36730;49.036;9.094;2022-08-03T14:49:13;33.20;45.00
47174;DHT22;36730;49.036;9.094;2022-08-03T14:51:39;33.20;45.20
47174;DHT22;36730;49.036;9.094;2022-08-03T14:54:04;33.20;45.00
47174;DHT22;36730;49.036;9.094;2022-08-03T14:56:30;33.20;45.20
47174;DHT22;36730;49.036;9.094;2022-08-03T14:58:55;33.20;45.20
47174;DHT22;36730;49.036;9.094;2022-08-03T15:01:21;33.20;45.30
47174;DHT22;36730;49.036;9.094;2022-08-03T15:03:46;33.20;45.20
47174;DHT22;36730;49.036;9.094;2022-08-03T15:06:12;33.20;45.10
47174;DHT22;36730;49.036;9.094;2022-08-03T15:08:38;33.20;45.00
47174;DHT22;36730;49.036;9.094;2022-08-03T15:11:03;33.20;44.90
47174;DHT22;36730;49.036;9.094;2022-08-03T15:13:29;33.20;44.80
47174;DHT22;36730;49.036;9.094;2022-08-03T15:15:54;33.20;45.10
47174;DHT22;36730;49.036;9.094;2022-08-03T15:18:21;33.30;45.20
47174;DHT22;36730;49.036;9.094;2022-08-03T15:20:47;33.40;44.70
47174;DHT22;36730;49.036;9.094;2022-08-03T15:23:15;33.40;45.10
47174;DHT22;36730;49.036;9.094;2022-08-03T15:25:41;33.40;44.20
47174;DHT22;36730;49.036;9.094;2022-08-03T15:28:07;33.40;44.60
47174;DHT22;36730;49.036;9.094;2022-08-03T15:30:32;33.40;45.00
47174;DHT22;36730;49.036;9.094;2022-08-03T15:33:02;33.40;44.80
47174;DHT22;36730;49.036;9.094;2022-08-03T15:35:27;33.40;44.80
47174;DHT22;36730;49.036;9.094;2022-08-03T15:37:53;33.40;44.90
47174;DHT22;36730;49.036;9.094;2022-08-03T15:40:18;33.40;44.90
47174;DHT22;36730;49.036;9.094;2022-08-03T15:42:44;33.40;44.90
47174;DHT22;36730;49.036;9.094;2022-08-03T15:45:10;33.40;45.00
47174;DHT22;36730;49.036;9.094;2022-08-03T15:47:35;33.40;44.80
47174;DHT22;36730;49.036;9.094;2022-08-03T15:50:01;33.50;44.70
47174;DHT22;36730;49.036;9.094;2022-08-03T15:52:26;33.50;44.90
47174;DHT22;36730;49.036;9.094;2022-08-03T15:54:52;33.50;44.70
47174;DHT22;36730;49.036;9.094;2022-08-03T15:57:17;33.50;44.40
47174;DHT22;36730;49.036;9.094;2022-08-03T15:59:43;33.50;44.60